NV25 weather

St. Rose Dominican Hospital Heliport
Henderson, Nevada, United States

Public forecast

Using degrees Fahrenheit for public forecast. Weather courtesy of forecast.io.

Closest aviation weather report (METAR) to St. Rose Dominican Hospital Heliport

Closest report is Henderson Executive Airport, 8.4 nm (15.5 km) WSW. Retrieved 2020/02/25 21:56 UTC (45 minutes ago):

KHND 252156Z 05010KT 030V090 10SM CLR 13/M11 A3041 RMK AO2 SLP315 T01331106

Closest aviation forecast (TAF) to St. Rose Dominican Hospital Heliport

Closest forecast is Henderson Executive Airport, 8.4 nm (15.5 km) WSW. Retrieved 2020/02/25 18:30 UTC (4 hours ago):

TAF KHND 251727Z 2518/2618 04014G24KT P6SM SKC FM260100 06009KT P6SM SKC FM260400 VRB06KT P6SM SKC FM261700 04006KT P6SM SKC